Time;durP1;ratioP1;P1;durP2;ratioP2;P2;SDS_P1;SDS_P2;PMS_P1;PMS_P2;Temp;Humidity;BMP_temperature;BMP_pressure;BME280_temperature;BME280_humidity;BME280_pressure;Samples;Min_cycle;Max_cycle;Signal;HPM_P1;HPM_P2
2023/10/18 00:02:18;;;;;;;32.03;17.15;;;4.00;99.90;;;;;;5094688;28;20031;-83
2023/10/18 00:04:44;;;;;;;35.50;18.50;;;3.90;99.90;;;;;;5068381;28;20027;-83
2023/10/18 00:07:13;;;;;;;26.42;16.65;;;3.90;99.90;;;;;;5077792;28;20028;-83
2023/10/18 00:09:45;;;;;;;31.25;17.20;;;3.90;99.90;;;;;;5059408;28;20159;-83
2023/10/18 00:12:16;;;;;;;34.70;17.83;;;3.90;99.90;;;;;;5082360;28;20025;-83
2023/10/18 00:14:45;;;;;;;31.95;17.42;;;3.90;99.90;;;;;;5060286;28;20035;-83
2023/10/18 00:17:11;;;;;;;34.25;18.48;;;3.90;99.90;;;;;;5064215;28;20024;-83
2023/10/18 00:19:38;;;;;;;31.30;18.05;;;3.80;99.90;;;;;;5091678;28;20032;-83
2023/10/18 00:22:07;;;;;;;30.02;17.75;;;3.80;99.90;;;;;;5087192;28;20042;-83
2023/10/18 00:24:34;;;;;;;33.53;18.02;;;3.80;99.90;;;;;;5082368;28;20028;-84
2023/10/18 00:27:00;;;;;;;32.78;17.77;;;3.80;99.90;;;;;;5080616;28;20028;-83
2023/10/18 00:29:25;;;;;;;32.80;17.65;;;3.80;99.90;;;;;;5083765;28;20028;-83
2023/10/18 00:31:51;;;;;;;31.77;17.90;;;3.90;99.90;;;;;;5065534;28;20127;-83
2023/10/18 00:34:18;;;;;;;34.35;19.52;;;3.80;99.90;;;;;;5064634;28;20086;-84
2023/10/18 00:36:43;;;;;;;38.53;18.80;;;3.70;99.90;;;;;;5102368;28;20023;-83
2023/10/18 00:39:32;;;;;;;46.67;20.58;;;3.70;99.90;;;;;;5085975;28;20111;-84
2023/10/18 00:42:23;;;;;;;33.78;19.10;;;3.70;99.90;;;;;;5064118;28;20441;-83
2023/10/18 00:44:50;;;;;;;39.15;20.10;;;3.70;99.90;;;;;;5081733;28;20054;-83
2023/10/18 00:47:16;;;;;;;36.88;20.00;;;3.70;99.90;;;;;;5084358;28;20020;-84
2023/10/18 00:49:52;;;;;;;35.28;19.92;;;3.70;99.90;;;;;;5067036;28;20016;-83
2023/10/18 00:52:26;;;;;;;39.00;21.52;;;3.60;99.90;;;;;;5077216;28;20051;-83
2023/10/18 00:54:53;;;;;;;42.88;20.70;;;3.60;99.90;;;;;;5080205;28;20110;-83
2023/10/18 00:57:22;;;;;;;36.95;21.90;;;3.60;99.90;;;;;;5078304;28;20410;-83
2023/10/18 00:59:51;;;;;;;39.28;20.17;;;3.60;99.90;;;;;;5088059;28;20024;-83
2023/10/18 01:02:19;;;;;;;39.55;20.83;;;3.60;99.90;;;;;;5075198;28;20120;-83
2023/10/18 01:04:52;;;;;;;43.05;22.17;;;3.60;99.90;;;;;;5081943;28;20028;-83
2023/10/18 01:07:20;;;;;;;38.72;20.60;;;3.60;99.90;;;;;;5060901;28;20054;-84
2023/10/18 01:09:49;;;;;;;42.15;21.17;;;3.50;99.90;;;;;;5060229;28;20028;-83
2023/10/18 01:12:15;;;;;;;41.72;21.27;;;3.50;99.90;;;;;;5057383;28;20020;-83
2023/10/18 01:14:45;;;;;;;41.65;21.92;;;3.50;99.90;;;;;;5068807;28;20039;-83
2023/10/18 01:17:11;;;;;;;40.63;22.38;;;3.60;99.90;;;;;;5083988;28;20061;-83
2023/10/18 01:19:40;;;;;;;40.67;21.17;;;3.60;99.90;;;;;;5080963;28;20039;-83
2023/10/18 01:22:07;;;;;;;44.47;23.42;;;3.50;99.90;;;;;;5085316;28;20039;-83
2023/10/18 01:24:38;;;;;;;43.78;24.05;;;3.40;99.90;;;;;;5080988;28;20023;-83
2023/10/18 01:27:05;;;;;;;43.17;23.02;;;3.40;99.90;;;;;;5062744;28;20074;-83
2023/10/18 01:29:31;;;;;;;44.25;23.08;;;3.40;99.90;;;;;;5094967;28;20032;-83
2023/10/18 01:31:58;;;;;;;42.30;22.58;;;3.40;99.90;;;;;;5081677;28;20035;-83
2023/10/18 01:34:25;;;;;;;42.17;22.48;;;3.40;99.90;;;;;;5080191;28;20027;-83
2023/10/18 01:36:52;;;;;;;41.67;22.35;;;3.40;99.90;;;;;;5067448;28;20035;-83
2023/10/18 01:39:18;;;;;;;45.83;23.17;;;3.40;99.90;;;;;;5076595;28;20058;-83
2023/10/18 01:41:54;;;;;;;43.90;22.38;;;3.30;99.90;;;;;;5067965;28;20447;-84
2023/10/18 01:44:35;;;;;;;47.03;23.85;;;3.30;99.90;;;;;;5078296;28;20020;-83
2023/10/18 01:47:12;;;;;;;44.40;23.70;;;3.30;99.90;;;;;;5078439;28;20031;-83
2023/10/18 01:49:43;;;;;;;45.40;24.95;;;3.30;99.90;;;;;;5059979;28;20038;-83
2023/10/18 01:52:17;;;;;;;43.97;23.20;;;3.30;99.90;;;;;;5061302;28;20383;-83
2023/10/18 01:54:43;;;;;;;50.30;24.70;;;3.30;99.90;;;;;;5085324;28;20125;-83
2023/10/18 01:57:11;;;;;;;53.85;25.13;;;3.30;99.90;;;;;;5066652;28;20091;-83
2023/10/18 01:59:39;;;;;;;47.13;24.75;;;3.20;99.90;;;;;;5081890;28;20730;-83
2023/10/18 02:02:10;;;;;;;50.42;25.48;;;3.20;99.90;;;;;;5076904;28;20085;-83
2023/10/18 02:04:37;;;;;;;53.22;27.95;;;3.20;99.90;;;;;;5076488;28;20525;-83
2023/10/18 02:07:07;;;;;;;64.93;26.65;;;3.20;99.90;;;;;;5062328;28;20118;-83
2023/10/18 02:09:36;;;;;;;57.85;27.25;;;3.20;99.90;;;;;;5081310;28;20024;-83
2023/10/18 02:12:07;;;;;;;60.67;29.50;;;3.20;99.90;;;;;;5061924;28;20042;-83
2023/10/18 02:14:33;;;;;;;51.50;27.10;;;3.20;99.90;;;;;;5073817;28;20030;-83
2023/10/18 02:17:07;;;;;;;53.97;28.98;;;3.20;99.90;;;;;;5085956;28;20077;-83
2023/10/18 02:19:32;;;;;;;53.03;28.33;;;3.20;99.90;;;;;;5046502;28;20051;-83
2023/10/18 02:21:59;;;;;;;57.17;29.25;;;3.20;99.90;;;;;;5074381;28;20495;-83
2023/10/18 02:24:24;;;;;;;61.13;29.85;;;3.10;99.90;;;;;;5069013;28;20040;-83
2023/10/18 02:26:54;;;;;;;58.80;30.48;;;3.20;99.90;;;;;;5063614;28;20021;-83
2023/10/18 02:29:23;;;;;;;56.20;29.73;;;3.10;99.90;;;;;;5080324;28;20024;-83
2023/10/18 02:31:52;;;;;;;58.65;30.02;;;3.10;99.90;;;;;;5085148;28;20066;-83
2023/10/18 02:34:18;;;;;;;60.53;30.40;;;3.10;99.90;;;;;;5081783;28;20122;-83
2023/10/18 02:36:48;;;;;;;59.65;29.20;;;3.10;99.90;;;;;;5061595;28;20031;-83
2023/10/18 02:39:24;;;;;;;53.55;29.25;;;3.10;99.90;;;;;;5078063;28;20036;-83
2023/10/18 02:41:51;;;;;;;56.50;29.67;;;3.00;99.90;;;;;;5069600;28;20869;-83
2023/10/18 02:44:23;;;;;;;57.92;28.65;;;3.00;99.90;;;;;;5078887;28;20054;-83
2023/10/18 02:46:52;;;;;;;56.30;30.13;;;3.00;99.90;;;;;;5081047;28;20023;-83
2023/10/18 02:49:18;;;;;;;57.47;29.88;;;3.00;99.90;;;;;;5060417;28;20060;-83
2023/10/18 02:51:47;;;;;;;66.13;33.08;;;3.00;99.90;;;;;;5060250;28;20094;-84
2023/10/18 02:54:16;;;;;;;57.97;30.45;;;3.00;99.90;;;;;;5061863;28;20027;-83
2023/10/18 02:56:43;;;;;;;66.85;30.30;;;3.10;99.90;;;;;;5071331;28;20028;-83
2023/10/18 02:59:13;;;;;;;57.47;30.20;;;3.10;99.90;;;;;;5094867;28;20080;-83
2023/10/18 03:01:40;;;;;;;60.97;32.05;;;3.10;99.90;;;;;;5090207;28;20082;-84
2023/10/18 03:04:14;;;;;;;64.72;31.52;;;3.10;99.90;;;;;;5076642;28;20051;-83
2023/10/18 03:06:42;;;;;;;67.05;31.05;;;3.10;99.90;;;;;;5079237;28;20075;-83
2023/10/18 03:09:26;;;;;;;58.65;29.02;;;3.10;99.90;;;;;;5110171;28;20030;-83
2023/10/18 03:11:54;;;;;;;59.58;31.65;;;3.10;99.90;;;;;;5083866;28;20028;-83
2023/10/18 03:14:39;;;;;;;65.15;32.83;;;3.00;99.90;;;;;;5104397;28;20032;-83
2023/10/18 03:19:50;;;;;;;58.30;30.13;;;3.00;99.90;;;;;;5125451;27;20028;-83
2023/10/18 03:22:21;;;;;;;66.82;30.67;;;3.00;99.90;;;;;;5064818;28;20040;-83
2023/10/18 03:24:54;;;;;;;65.97;31.00;;;3.00;99.90;;;;;;5095540;28;20076;-83
2023/10/18 03:27:31;;;;;;;64.20;30.55;;;3.00;99.90;;;;;;5086623;28;20042;-83
2023/10/18 03:30:09;;;;;;;62.00;31.85;;;3.10;99.90;;;;;;5085705;28;20485;-83
2023/10/18 03:32:38;;;;;;;59.80;31.40;;;3.00;99.90;;;;;;5077685;28;20032;-83
2023/10/18 03:35:08;;;;;;;62.65;32.33;;;3.00;99.90;;;;;;5088768;28;20110;-83
2023/10/18 03:37:39;;;;;;;63.60;31.35;;;3.00;99.90;;;;;;5081132;28;20026;-83
2023/10/18 03:40:29;;;;;;;59.35;30.88;;;3.00;99.90;;;;;;5086826;28;20023;-83
2023/10/18 03:42:53;;;;;;;62.55;31.85;;;3.00;99.90;;;;;;5079893;28;20475;-84
2023/10/18 03:48:27;;;;;;;61.50;30.48;;;3.00;99.90;;;;;;5099133;28;20032;-83
2023/10/18 03:51:00;;;;;;;61.08;30.90;;;3.00;99.90;;;;;;5069089;28;20030;-84
2023/10/18 03:53:27;;;;;;;65.93;31.73;;;3.00;99.90;;;;;;5089570;28;20067;-82
2023/10/18 03:55:55;;;;;;;62.00;30.67;;;3.00;99.90;;;;;;5079963;28;20034;-83
2023/10/18 03:58:26;;;;;;;66.05;31.40;;;3.00;99.90;;;;;;5070131;28;20031;-83
2023/10/18 04:00:57;;;;;;;55.85;30.65;;;3.00;99.90;;;;;;5066608;28;20072;-83
2023/10/18 04:03:29;;;;;;;60.78;31.63;;;3.00;99.90;;;;;;5079092;28;20093;-83
2023/10/18 04:06:03;;;;;;;59.38;30.73;;;3.00;99.90;;;;;;5068324;28;20028;-83
2023/10/18 04:08:29;;;;;;;62.83;31.67;;;3.10;99.90;;;;;;5079340;28;20028;-83
2023/10/18 04:10:58;;;;;;;61.13;31.67;;;3.10;99.90;;;;;;5088118;28;20020;-83
2023/10/18 04:13:25;;;;;;;61.03;31.38;;;3.00;99.90;;;;;;5081398;28;20383;-83
2023/10/18 04:16:00;;;;;;;58.42;30.25;;;3.00;99.90;;;;;;5083050;28;20121;-83
2023/10/18 04:18:26;;;;;;;58.53;31.23;;;3.00;99.90;;;;;;5080632;28;20036;-83
2023/10/18 04:20:52;;;;;;;56.80;30.98;;;3.00;99.90;;;;;;5084647;28;20383;-84
2023/10/18 04:23:28;;;;;;;71.30;33.10;;;3.10;99.90;;;;;;5064637;28;20032;-83
2023/10/18 04:26:01;;;;;;;62.25;31.10;;;3.10;99.90;;;;;;5080911;28;20472;-84
2023/10/18 04:28:30;;;;;;;60.50;30.60;;;3.10;99.90;;;;;;5067944;28;20051;-83
2023/10/18 04:31:29;;;;;;;65.95;31.75;;;3.20;99.90;;;;;;5089539;28;20051;-83
2023/10/18 04:34:21;;;;;;;61.90;30.63;;;3.30;99.90;;;;;;5055441;28;20032;-83
2023/10/18 04:36:47;;;;;;;65.28;32.13;;;3.30;99.90;;;;;;5061992;28;20032;-83
2023/10/18 04:39:16;;;;;;;69.60;32.90;;;3.30;99.90;;;;;;5071987;28;20400;-83
2023/10/18 04:41:44;;;;;;;73.03;32.92;;;3.40;99.90;;;;;;5097018;28;20036;-83
2023/10/18 04:44:27;;;;;;;64.75;32.67;;;3.40;99.90;;;;;;5065650;28;20718;-83
2023/10/18 04:46:53;;;;;;;68.65;32.17;;;3.40;99.90;;;;;;5070936;28;20112;-84
2023/10/18 04:49:38;;;;;;;59.60;31.40;;;3.40;99.90;;;;;;5069738;28;20119;-83
2023/10/18 04:52:08;;;;;;;64.72;32.80;;;3.30;99.90;;;;;;5073285;28;20118;-83
2023/10/18 04:54:38;;;;;;;67.10;32.13;;;3.30;99.90;;;;;;5071396;28;20543;-83
2023/10/18 04:57:22;;;;;;;61.50;32.25;;;3.30;99.90;;;;;;5072616;28;20506;-84
2023/10/18 04:59:52;;;;;;;64.35;32.45;;;3.30;99.90;;;;;;5066214;28;20078;-83
2023/10/18 05:02:38;;;;;;;67.93;32.38;;;3.30;99.90;;;;;;5086939;28;20039;-83
2023/10/18 05:05:37;;;;;;;69.97;35.20;;;3.20;99.90;;;;;;5089315;28;20534;-83
2023/10/18 05:08:06;;;;;;;63.10;33.38;;;3.30;99.90;;;;;;5073883;28;20031;-82
2023/10/18 05:10:33;;;;;;;69.57;34.25;;;3.30;99.90;;;;;;5066618;28;20043;-83
2023/10/18 05:13:01;;;;;;;68.45;33.83;;;3.20;99.90;;;;;;5072609;28;20035;-83
2023/10/18 05:15:31;;;;;;;70.65;35.50;;;3.20;99.90;;;;;;5079108;28;20032;-84
2023/10/18 05:18:15;;;;;;;67.60;34.67;;;3.20;99.90;;;;;;5087829;28;20433;-83
2023/10/18 05:20:41;;;;;;;66.45;34.13;;;3.10;99.90;;;;;;5077494;28;20028;-83
2023/10/18 05:23:07;;;;;;;74.68;36.42;;;3.10;99.90;;;;;;5072930;28;20483;-83
2023/10/18 05:25:45;;;;;;;68.50;34.90;;;3.10;99.90;;;;;;5074798;28;20016;-83
2023/10/18 05:28:17;;;;;;;69.10;35.13;;;3.20;99.90;;;;;;5072184;28;20025;-83
2023/10/18 05:33:47;;;;;;;83.68;37.63;;;3.20;99.90;;;;;;5089129;28;20032;-83
2023/10/18 05:38:48;;;;;;;77.60;37.17;;;3.20;99.90;;;;;;5115029;27;20036;-83
2023/10/18 05:43:47;;;;;;;68.32;35.63;;;3.30;99.90;;;;;;5087305;28;20575;-82
2023/10/18 05:46:12;;;;;;;67.50;35.83;;;3.30;99.90;;;;;;5063925;28;20024;-83
2023/10/18 05:48:41;;;;;;;76.53;36.80;;;3.20;99.90;;;;;;5103751;28;20027;-83
2023/10/18 05:51:26;;;;;;;72.55;35.28;;;3.20;99.90;;;;;;5061526;28;20549;-83
2023/10/18 05:53:59;;;;;;;66.97;34.03;;;3.20;99.90;;;;;;5069684;28;20024;-83
2023/10/18 05:56:29;;;;;;;70.80;36.33;;;3.20;99.90;;;;;;5083694;28;20065;-83
2023/10/18 06:01:53;;;;;;;71.15;35.08;;;3.20;99.90;;;;;;5068215;28;20115;-83
2023/10/18 06:04:25;;;;;;;71.15;33.85;;;3.20;99.90;;;;;;5067789;28;20081;-84
2023/10/18 06:07:13;;;;;;;67.75;34.30;;;3.30;99.90;;;;;;5083514;28;20027;-82
2023/10/18 06:09:46;;;;;;;65.88;33.83;;;3.30;99.90;;;;;;5071598;28;20116;-83
2023/10/18 06:12:27;;;;;;;72.93;36.13;;;3.30;99.90;;;;;;5077835;28;20035;-83
2023/10/18 06:14:54;;;;;;;70.82;33.92;;;3.30;99.90;;;;;;5069887;28;20115;-83
2023/10/18 06:17:25;;;;;;;65.55;34.42;;;3.40;99.90;;;;;;5083008;28;20027;-83
2023/10/18 06:19:51;;;;;;;;;;;3.40;99.90;;;;;;5083130;28;20119;-82
2023/10/18 06:23:07;;;;;;;67.15;33.80;;;3.40;99.90;;;;;;5088228;28;20442;-83
2023/10/18 06:25:03;;;;;;;65.47;32.65;;;3.40;99.90;;;;;;5076314;28;20127;-83
2023/10/18 06:27:41;;;;;;;65.25;31.60;;;3.40;99.90;;;;;;5071634;28;20061;-82
2023/10/18 06:30:14;;;;;;;62.22;31.95;;;3.40;99.90;;;;;;5062933;28;20020;-83
2023/10/18 06:32:41;;;;;;;56.67;31.42;;;3.50;99.90;;;;;;5084374;28;20035;-83
2023/10/18 06:35:14;;;;;;;62.10;32.55;;;3.50;99.90;;;;;;5064572;28;20756;-83
2023/10/18 06:37:43;;;;;;;63.78;30.90;;;3.50;99.90;;;;;;5076620;28;20882;-83
2023/10/18 06:40:43;;;;;;;61.60;32.38;;;3.60;99.90;;;;;;5086400;28;20031;-83
2023/10/18 06:43:09;;;;;;;62.45;31.98;;;3.60;99.90;;;;;;5071588;28;20429;-83
2023/10/18 06:45:40;;;;;;;58.42;29.20;;;3.60;99.90;;;;;;5092358;28;20024;-83
2023/10/18 06:48:08;;;;;;;64.57;32.58;;;3.60;99.90;;;;;;5067544;28;20031;-83
2023/10/18 06:50:35;;;;;;;59.95;30.38;;;3.60;99.90;;;;;;5079482;28;20410;-84
2023/10/18 06:53:05;;;;;;;59.08;30.98;;;3.70;99.90;;;;;;5063535;28;20038;-83
2023/10/18 06:58:22;;;;;;;58.33;30.08;;;3.70;99.90;;;;;;5075137;28;20032;-83
2023/10/18 07:00:55;;;;;;;57.00;31.17;;;3.80;99.90;;;;;;5069611;28;20036;-83
2023/10/18 07:03:37;;;;;;;54.13;29.30;;;3.80;99.90;;;;;;5082014;28;20028;-83
2023/10/18 07:06:16;;;;;;;62.85;29.85;;;4.00;99.90;;;;;;5081748;28;20180;-83
2023/10/18 07:08:44;;;;;;;53.35;27.85;;;4.10;99.90;;;;;;5063845;28;20028;-83
2023/10/18 07:11:23;;;;;;;50.53;27.90;;;4.30;99.90;;;;;;5082788;28;20093;-83
2023/10/18 07:13:54;;;;;;;62.33;30.75;;;4.50;99.90;;;;;;5064077;28;20039;-84
2023/10/18 07:21:51;;;;;;;50.47;27.48;;;4.90;99.90;;;;;;5048194;28;20051;-84
2023/10/18 07:24:21;;;;;;;52.83;27.13;;;5.00;99.90;;;;;;5082207;28;20028;-83
2023/10/18 07:26:47;;;;;;;46.95;26.50;;;5.10;99.90;;;;;;5065029;28;20133;-83
2023/10/18 07:29:20;;;;;;;47.45;26.02;;;5.20;99.90;;;;;;5058921;28;20086;-83
2023/10/18 07:31:46;;;;;;;42.42;25.42;;;5.20;99.90;;;;;;5069382;28;20039;-83
2023/10/18 07:34:19;;;;;;;43.30;25.70;;;5.30;99.90;;;;;;5095137;28;20497;-83
2023/10/18 07:36:45;;;;;;;42.40;24.45;;;5.30;99.90;;;;;;5062724;28;20475;-83
2023/10/18 07:39:16;;;;;;;44.85;25.02;;;5.30;99.90;;;;;;5099318;28;20028;-83
2023/10/18 07:41:46;;;;;;;49.38;26.60;;;5.40;99.90;;;;;;5092183;28;20087;-82
2023/10/18 07:44:12;;;;;;;45.90;25.17;;;5.40;99.90;;;;;;5084881;28;20035;-83
2023/10/18 07:46:40;;;;;;;47.00;26.17;;;5.40;99.90;;;;;;5067956;28;20027;-83
2023/10/18 07:49:13;;;;;;;42.08;23.88;;;5.50;99.90;;;;;;5069246;28;20077;-84
2023/10/18 07:51:59;;;;;;;41.78;24.20;;;5.50;99.90;;;;;;5071885;28;20126;-83
2023/10/18 07:54:48;;;;;;;40.75;24.02;;;5.50;99.90;;;;;;5081661;28;20489;-84
2023/10/18 07:57:17;;;;;;;42.58;23.60;;;5.60;99.90;;;;;;5120247;27;20540;-83
2023/10/18 07:59:46;;;;;;;49.10;24.00;;;5.70;99.90;;;;;;5093050;28;20055;-83
2023/10/18 08:02:12;;;;;;;44.60;22.45;;;5.80;99.90;;;;;;5070204;28;20441;-84
2023/10/18 08:04:42;;;;;;;38.60;22.52;;;6.00;99.90;;;;;;5085483;28;20080;-84
2023/10/18 08:07:15;;;;;;;40.20;22.70;;;6.10;99.90;;;;;;5063506;28;20036;-84
2023/10/18 08:09:48;;;;;;;42.15;22.40;;;6.20;99.90;;;;;;5087788;28;20032;-84
2023/10/18 08:14:54;;;;;;;36.83;20.10;;;6.50;99.90;;;;;;5112578;27;20680;-84
2023/10/18 08:17:29;;;;;;;32.47;19.40;;;6.60;99.90;;;;;;5091930;28;20326;-83
2023/10/18 08:22:47;;;;;;;34.08;20.05;;;6.60;99.90;;;;;;5090035;28;20034;-83
2023/10/18 08:25:22;;;;;;;29.80;18.65;;;6.70;99.90;;;;;;5090613;28;20077;-83
2023/10/18 08:27:51;;;;;;;31.85;18.48;;;6.70;99.90;;;;;;5063334;28;20016;-83
2023/10/18 08:33:03;;;;;;;30.23;17.92;;;6.90;99.90;;;;;;5094909;28;20077;-84
2023/10/18 08:35:29;;;;;;;29.77;17.20;;;7.10;99.90;;;;;;5082114;28;20036;-83
2023/10/18 08:37:55;;;;;;;28.25;17.17;;;7.20;99.90;;;;;;5067190;28;20039;-83
2023/10/18 08:40:31;;;;;;;24.10;15.48;;;7.20;99.90;;;;;;5066873;28;20031;-84
2023/10/18 08:43:28;;;;;;;27.83;15.57;;;7.30;99.90;;;;;;5082895;28;20024;-84
2023/10/18 08:45:55;;;;;;;28.13;15.25;;;7.50;99.90;;;;;;5079631;28;21079;-83
2023/10/18 08:48:28;;;;;;;23.23;15.05;;;7.70;99.90;;;;;;5084624;28;20032;-83
2023/10/18 08:51:02;;;;;;;19.20;12.57;;;7.80;99.90;;;;;;5079142;28;20068;-84
2023/10/18 08:53:31;;;;;;;24.17;13.75;;;7.90;99.90;;;;;;5066733;28;20082;-83
2023/10/18 08:55:57;;;;;;;22.95;13.50;;;7.90;99.90;;;;;;5103700;28;20023;-84
2023/10/18 08:58:30;;;;;;;21.90;13.60;;;7.90;99.90;;;;;;5067168;28;20445;-84
2023/10/18 09:03:28;;;;;;;26.58;13.30;;;8.20;99.90;;;;;;5079009;28;20032;-84
2023/10/18 09:06:05;;;;;;;19.95;12.40;;;8.20;99.90;;;;;;5070088;28;20102;-83
2023/10/18 09:08:45;;;;;;;18.80;12.02;;;8.40;99.90;;;;;;5063662;28;20467;-84
2023/10/18 09:11:21;;;;;;;18.83;11.18;;;8.50;99.90;;;;;;5061680;28;20070;-83
2023/10/18 09:16:38;;;;;;;21.13;11.18;;;8.70;99.90;;;;;;5101243;28;20047;-84
2023/10/18 09:19:05;;;;;;;;;;;8.80;99.90;;;;;;5070166;28;20724;-84
2023/10/18 09:21:36;;;;;;;17.50;10.45;;;9.10;99.90;;;;;;5079802;28;19914;-83
2023/10/18 09:24:09;;;;;;;15.30;9.52;;;9.70;99.90;;;;;;5080001;28;20024;-83
2023/10/18 09:26:44;;;;;;;13.85;9.23;;;10.00;99.90;;;;;;5081371;28;20036;-84
2023/10/18 09:29:10;;;;;;;16.00;8.77;;;10.40;99.90;;;;;;5090822;28;20031;-84
2023/10/18 09:31:52;;;;;;;12.10;8.02;;;11.20;99.90;;;;;;5087294;28;20032;-85
2023/10/18 09:34:19;;;;;;;12.98;7.90;;;11.80;99.90;;;;;;5082582;28;20035;-84
2023/10/18 09:36:55;;;;;;;14.43;8.10;;;12.10;99.90;;;;;;5064960;28;20060;-84
2023/10/18 09:39:37;;;;;;;15.25;9.25;;;12.10;99.90;;;;;;5061650;28;20101;-85
2023/10/18 09:42:05;;;;;;;11.20;8.23;;;12.60;99.90;;;;;;5080778;28;20051;-84
2023/10/18 09:44:30;;;;;;;13.65;8.32;;;12.60;99.90;;;;;;5102401;28;20035;-84
2023/10/18 09:46:59;;;;;;;16.65;8.38;;;12.30;99.90;;;;;;5076045;28;20450;-83
2023/10/18 09:49:28;;;;;;;13.25;7.82;;;12.40;99.90;;;;;;5072435;28;20035;-84
2023/10/18 09:51:54;;;;;;;11.25;7.55;;;12.70;99.90;;;;;;5067680;28;20059;-84
2023/10/18 09:54:24;;;;;;;12.80;7.85;;;12.60;99.90;;;;;;5071718;28;20062;-84
2023/10/18 09:56:54;;;;;;;9.75;7.70;;;12.60;99.90;;;;;;5112505;27;20543;-84
2023/10/18 09:59:30;;;;;;;13.90;8.45;;;12.70;99.90;;;;;;5089559;28;20031;-84
2023/10/18 10:02:15;;;;;;;10.85;7.88;;;12.80;99.90;;;;;;5061367;28;20040;-84
2023/10/18 10:04:42;;;;;;;11.63;7.90;;;13.00;99.90;;;;;;5053243;28;20050;-84
2023/10/18 10:10:17;;;;;;;19.60;7.78;;;13.10;99.90;;;;;;5105442;28;20035;-84
2023/10/18 10:12:44;;;;;;;11.93;8.30;;;13.10;99.90;;;;;;5079344;28;20026;-84
2023/10/18 10:15:13;;;;;;;12.43;7.80;;;12.80;99.90;;;;;;5084410;28;20436;-84
2023/10/18 10:18:00;;;;;;;10.52;7.40;;;12.50;99.90;;;;;;5104134;28;20046;-83
2023/10/18 10:20:32;;;;;;;11.63;8.15;;;12.60;99.90;;;;;;5082961;28;20043;-84
2023/10/18 10:23:02;;;;;;;;;;;12.40;99.90;;;;;;5076979;28;20080;-84
2023/10/18 10:25:31;;;;;;;12.63;7.50;;;12.70;99.90;;;;;;5075652;28;19915;-84
2023/10/18 10:28:13;;;;;;;11.23;7.70;;;13.10;99.90;;;;;;5093919;28;20028;-84
2023/10/18 10:30:43;;;;;;;10.68;7.97;;;13.10;99.90;;;;;;5064532;28;20033;-84
2023/10/18 10:33:12;;;;;;;12.77;8.40;;;12.70;99.90;;;;;;5092304;28;20040;-84
2023/10/18 10:35:45;;;;;;;12.68;8.43;;;12.80;99.90;;;;;;5090784;28;20040;-85
2023/10/18 10:38:21;;;;;;;10.27;7.10;;;12.80;99.90;;;;;;5096788;28;20031;-84
2023/10/18 10:40:48;;;;;;;13.73;8.27;;;13.00;99.90;;;;;;5089602;28;20147;-84
2023/10/18 10:43:51;;;;;;;14.13;7.82;;;13.00;99.90;;;;;;5081492;28;20028;-84
2023/10/18 10:46:37;;;;;;;15.27;8.60;;;13.20;99.90;;;;;;5098639;28;20115;-83
2023/10/18 10:49:47;;;;;;;10.40;8.15;;;13.10;99.90;;;;;;5094803;28;20085;-84
2023/10/18 10:52:18;;;;;;;14.88;8.48;;;12.70;99.90;;;;;;5060352;28;20032;-84
2023/10/18 10:54:48;;;;;;;11.00;8.48;;;12.10;99.90;;;;;;5093774;28;20069;-84
2023/10/18 10:57:15;;;;;;;17.40;8.90;;;11.90;99.90;;;;;;5093504;28;20032;-85
2023/10/18 10:59:51;;;;;;;11.63;8.38;;;11.90;99.90;;;;;;5077604;28;20367;-84
2023/10/18 11:02:24;;;;;;;14.18;9.02;;;11.80;99.90;;;;;;5079693;28;20074;-84
2023/10/18 11:04:50;;;;;;;21.25;8.70;;;11.80;99.90;;;;;;5058656;28;20028;-83
2023/10/18 11:07:24;;;;;;;13.18;8.30;;;11.60;99.90;;;;;;5064664;28;20471;-84
2023/10/18 11:09:54;;;;;;;16.85;8.23;;;11.60;99.90;;;;;;5097218;28;20028;-84
2023/10/18 11:12:22;;;;;;;15.20;9.40;;;11.70;99.90;;;;;;5058477;28;20032;-85
2023/10/18 11:14:52;;;;;;;15.45;9.02;;;11.70;99.90;;;;;;5055961;28;20084;-84
2023/10/18 11:17:19;;;;;;;12.38;8.35;;;11.90;99.90;;;;;;5085994;28;20036;-85
2023/10/18 11:19:53;;;;;;;13.25;8.50;;;12.20;99.90;;;;;;5098427;28;20077;-85
2023/10/18 11:22:19;;;;;;;16.45;9.32;;;12.60;99.90;;;;;;5095819;28;20029;-85
2023/10/18 11:24:53;;;;;;;15.85;8.27;;;12.90;99.90;;;;;;5110383;27;20074;-85
2023/10/18 11:27:34;;;;;;;21.23;8.40;;;13.40;99.90;;;;;;5064556;28;20033;-84
2023/10/18 11:30:15;;;;;;;14.93;7.90;;;13.40;99.90;;;;;;5096511;28;20060;-84
2023/10/18 11:32:48;;;;;;;15.95;8.20;;;13.30;99.90;;;;;;5066474;28;20042;-84
2023/10/18 11:38:09;;;;;;;12.07;8.48;;;14.20;99.90;;;;;;5098538;28;20046;-84
2023/10/18 11:40:40;;;;;;;10.98;7.78;;;14.00;99.90;;;;;;5065117;28;20067;-84
2023/10/18 11:43:08;;;;;;;12.77;7.25;;;13.90;99.90;;;;;;5068986;28;20061;-84
2023/10/18 11:45:36;;;;;;;12.48;7.72;;;14.00;99.90;;;;;;5066505;28;20094;-85
2023/10/18 11:48:05;;;;;;;13.43;7.82;;;13.60;99.90;;;;;;5072789;28;20408;-84
2023/10/18 11:50:48;;;;;;;13.63;8.25;;;13.10;99.90;;;;;;5068490;28;20433;-84
2023/10/18 11:53:15;;;;;;;12.68;7.45;;;13.10;99.90;;;;;;5082371;28;20024;-84
2023/10/18 11:55:55;;;;;;;10.80;7.25;;;13.10;99.90;;;;;;5069811;28;20016;-84
2023/10/18 11:58:25;;;;;;;13.40;7.20;;;12.90;99.90;;;;;;5100618;28;20031;-84
2023/10/18 12:01:01;;;;;;;15.20;9.50;;;12.60;99.90;;;;;;5081590;28;20043;-85
2023/10/18 12:03:33;;;;;;;10.68;7.70;;;12.30;99.90;;;;;;5088103;28;20111;-85
2023/10/18 12:06:00;;;;;;;12.23;7.13;;;12.20;99.90;;;;;;5067991;28;20558;-85
2023/10/18 12:08:30;;;;;;;16.20;8.07;;;12.50;99.90;;;;;;5086727;28;20020;-84
2023/10/18 12:10:57;;;;;;;11.43;7.50;;;12.40;99.90;;;;;;5070382;28;20026;-85
2023/10/18 12:13:24;;;;;;;15.90;8.15;;;12.30;99.90;;;;;;5062957;28;20032;-84
2023/10/18 12:15:50;;;;;;;12.68;7.80;;;12.20;99.90;;;;;;5105222;28;20042;-85
2023/10/18 12:18:16;;;;;;;11.10;7.60;;;12.10;99.90;;;;;;5079775;28;20474;-84
2023/10/18 12:20:45;;;;;;;11.73;7.63;;;12.10;99.90;;;;;;5072680;28;20488;-84
2023/10/18 12:23:21;;;;;;;9.65;6.53;;;12.30;99.90;;;;;;5064054;28;20036;-83
2023/10/18 12:25:48;;;;;;;9.27;7.13;;;12.50;99.90;;;;;;5116595;27;20036;-84
2023/10/18 12:28:19;;;;;;;26.70;13.68;;;12.60;99.90;;;;;;5062447;28;20032;-84
2023/10/18 12:30:55;;;;;;;12.82;7.63;;;12.90;99.90;;;;;;5078834;28;20046;-84
2023/10/18 12:33:25;;;;;;;14.07;7.63;;;12.90;99.90;;;;;;5059252;28;20037;-84
2023/10/18 12:35:51;;;;;;;13.35;7.97;;;12.80;99.90;;;;;;5087888;28;20028;-84
2023/10/18 12:38:24;;;;;;;14.70;7.97;;;12.60;99.90;;;;;;5060888;28;20040;-84
2023/10/18 12:40:58;;;;;;;13.45;8.88;;;12.40;99.90;;;;;;5110681;27;20028;-84
2023/10/18 12:43:25;;;;;;;15.57;7.38;;;12.30;99.90;;;;;;5061320;28;20427;-85
2023/10/18 12:45:51;;;;;;;11.60;7.57;;;12.20;99.90;;;;;;5094168;28;20024;-83
2023/10/18 12:48:27;;;;;;;18.50;8.40;;;12.20;99.90;;;;;;5086230;28;20032;-85
2023/10/18 12:50:54;;;;;;;12.45;7.70;;;12.20;99.90;;;;;;5066692;28;20029;-83
2023/10/18 12:56:16;;;;;;;16.10;8.30;;;12.00;99.90;;;;;;5099140;28;20073;-84
2023/10/18 12:58:54;;;;;;;17.70;9.23;;;11.90;99.90;;;;;;5118909;27;20093;-86
2023/10/18 13:01:22;;;;;;;12.50;7.30;;;11.90;99.90;;;;;;5071617;28;20028;-85
2023/10/18 13:04:31;;;;;;;11.52;8.00;;;11.90;99.90;;;;;;5097718;28;20024;-86
2023/10/18 13:06:42;;;;;;;14.10;8.07;;;11.90;99.90;;;;;;5067960;28;20562;-85
2023/10/18 13:12:16;;;;;;;17.20;8.15;;;11.90;99.90;;;;;;5089183;28;20020;-85
2023/10/18 13:14:41;;;;;;;17.85;7.50;;;12.00;99.90;;;;;;5067415;28;20035;-85
2023/10/18 13:17:10;;;;;;;15.70;7.50;;;12.20;99.90;;;;;;5082155;28;20028;-86
2023/10/18 13:19:44;;;;;;;11.55;7.55;;;12.20;99.90;;;;;;5066756;28;20020;-85
2023/10/18 13:22:17;;;;;;;12.10;7.18;;;12.30;99.90;;;;;;5067956;28;20031;-86
2023/10/18 13:24:49;;;;;;;13.63;8.38;;;12.20;99.90;;;;;;5062484;28;20024;-85
2023/10/18 13:27:18;;;;;;;11.32;7.55;;;12.30;99.90;;;;;;5085000;28;20046;-86
2023/10/18 13:30:00;;;;;;;15.60;6.88;;;12.20;99.90;;;;;;5112876;27;20701;-85
2023/10/18 13:32:28;;;;;;;10.30;6.47;;;12.30;99.90;;;;;;5074049;28;20036;-85
2023/10/18 13:34:55;;;;;;;13.10;7.50;;;12.30;99.90;;;;;;5086000;28;20060;-85
2023/10/18 13:37:23;;;;;;;13.43;6.85;;;12.20;99.90;;;;;;5077984;28;20035;-85
2023/10/18 13:39:51;;;;;;;13.38;7.60;;;12.20;99.90;;;;;;5118139;27;20035;-85
2023/10/18 13:42:18;;;;;;;10.90;6.93;;;12.20;99.90;;;;;;5095489;28;20039;-86
2023/10/18 13:44:44;;;;;;;9.52;6.35;;;12.20;99.90;;;;;;5066167;28;20020;-85
2023/10/18 13:47:11;;;;;;;11.15;6.95;;;12.30;99.90;;;;;;5114806;27;20028;-86
2023/10/18 13:49:39;;;;;;;10.88;5.97;;;12.30;99.90;;;;;;5068806;28;20020;-85
2023/10/18 13:52:05;;;;;;;17.02;6.32;;;12.30;99.90;;;;;;5066381;28;20040;-86